Time;durP1;ratioP1;P1;durP2;ratioP2;P2;SDS_P1;SDS_P2;PMS_P1;PMS_P2;Temp;Humidity;BMP_temperature;BMP_pressure;BME280_temperature;BME280_humidity;BME280_pressure;Samples;Min_cycle;Max_cycle;Signal;HPM_P1;HPM_P2
2023/06/07 00:01:06;;;;;;;1.92;1.73;;;20.20;47.00;;;;;;5101373;28;20198;-81
2023/06/07 00:03:36;;;;;;;1.35;1.25;;;20.20;46.90;;;;;;5102148;28;20153;-80
2023/06/07 00:06:02;;;;;;;1.83;1.30;;;20.30;47.00;;;;;;5119458;28;20218;-81
2023/06/07 00:08:29;;;;;;;1.45;1.20;;;20.20;46.80;;;;;;5119779;28;20152;-81
2023/06/07 00:10:55;;;;;;;1.60;1.40;;;20.20;46.80;;;;;;5101100;28;20171;-80
2023/06/07 00:13:22;;;;;;;1.42;1.33;;;20.20;46.80;;;;;;5101461;28;20164;-80
2023/06/07 00:15:48;;;;;;;1.35;1.20;;;20.20;46.70;;;;;;5101522;28;20160;-82
2023/06/07 00:18:15;;;;;;;1.73;1.42;;;20.20;46.50;;;;;;5101151;28;20171;-80
2023/06/07 00:20:49;;;;;;;1.40;1.30;;;20.20;46.60;;;;;;5085142;28;20308;-79
2023/06/07 00:23:16;;;;;;;1.60;1.50;;;20.20;46.80;;;;;;5119823;28;20606;-81
2023/06/07 00:25:44;;;;;;;1.95;1.50;;;20.20;46.60;;;;;;5102721;28;20182;-80
2023/06/07 00:28:10;;;;;;;1.52;1.42;;;20.30;46.60;;;;;;5105157;28;20171;-82
2023/06/07 00:30:38;;;;;;;1.42;1.33;;;20.20;46.40;;;;;;5089065;28;20534;-80
2023/06/07 00:33:04;;;;;;;1.30;1.20;;;20.20;46.40;;;;;;5123909;28;20176;-82
2023/06/07 00:35:31;;;;;;;1.30;1.20;;;20.30;46.40;;;;;;5105836;28;20218;-81
2023/06/07 00:37:57;;;;;;;1.30;1.20;;;20.20;46.40;;;;;;5089033;28;20175;-84
2023/06/07 00:40:23;;;;;;;1.40;1.30;;;20.20;46.20;;;;;;5088753;28;20267;-82
2023/06/07 00:42:50;;;;;;;1.67;1.58;;;20.20;46.00;;;;;;5105302;28;20201;-79
2023/06/07 00:45:16;;;;;;;1.40;1.30;;;20.20;46.00;;;;;;5104953;28;20155;-83
2023/06/07 00:47:43;;;;;;;1.40;1.30;;;20.20;46.00;;;;;;5105283;28;20160;-80
2023/06/07 00:50:09;;;;;;;1.30;1.20;;;20.20;46.00;;;;;;5105212;28;20175;-81
2023/06/07 00:52:35;;;;;;;1.50;1.38;;;20.20;45.90;;;;;;5088548;28;20159;-82
2023/06/07 00:55:02;;;;;;;1.13;1.00;;;20.20;46.00;;;;;;5088150;28;20161;-80
2023/06/07 00:57:29;;;;;;;1.40;1.30;;;20.20;46.00;;;;;;5105731;28;20201;-80
2023/06/07 00:59:55;;;;;;;1.65;1.40;;;20.20;46.10;;;;;;5105545;28;20153;-82
2023/06/07 01:02:26;;;;;;;1.42;1.33;;;20.10;46.20;;;;;;5088021;28;20198;-80
2023/06/07 01:04:52;;;;;;;1.38;1.27;;;20.20;46.10;;;;;;5104846;28;20148;-83
2023/06/07 01:07:24;;;;;;;1.20;1.10;;;20.20;46.10;;;;;;5123502;28;20211;-81
2023/06/07 01:09:52;;;;;;;1.75;1.50;;;20.20;46.10;;;;;;5107051;28;20520;-81
2023/06/07 01:12:19;;;;;;;1.52;1.25;;;20.20;46.10;;;;;;5088651;28;20217;-79
2023/06/07 01:14:46;;;;;;;1.30;1.20;;;20.20;46.10;;;;;;5088352;28;20511;-80
2023/06/07 01:17:12;;;;;;;1.30;1.20;;;20.20;46.30;;;;;;5105017;28;20298;-80
2023/06/07 01:19:39;;;;;;;1.25;1.15;;;20.20;46.10;;;;;;5123676;28;20152;-80
2023/06/07 01:22:06;;;;;;;1.40;1.30;;;20.20;46.30;;;;;;5088773;28;20195;-79
2023/06/07 01:24:35;;;;;;;1.17;1.08;;;20.10;46.40;;;;;;5105305;28;20467;-80
2023/06/07 01:27:02;;;;;;;1.80;1.65;;;20.20;46.50;;;;;;5122471;28;20602;-81
2023/06/07 01:29:28;;;;;;;1.50;1.40;;;20.20;46.50;;;;;;5087244;28;20216;-82
2023/06/07 01:31:55;;;;;;;1.40;1.30;;;20.20;46.40;;;;;;5104962;28;20199;-82
2023/06/07 01:34:20;;;;;;;1.30;1.20;;;20.20;46.40;;;;;;5093143;27;20215;-80
2023/06/07 01:36:47;;;;;;;1.30;1.20;;;20.10;46.30;;;;;;5125816;27;20293;-79
2023/06/07 01:39:14;;;;;;;1.40;1.20;;;20.20;46.40;;;;;;5126062;27;20179;-80
2023/06/07 01:41:41;;;;;;;1.52;1.30;;;20.20;46.40;;;;;;5125651;27;20595;-81
2023/06/07 01:44:07;;;;;;;1.52;1.40;;;20.10;46.40;;;;;;5125006;27;20177;-82
2023/06/07 01:46:33;;;;;;;1.35;1.25;;;20.20;46.70;;;;;;5125792;27;20152;-82
2023/06/07 01:48:59;;;;;;;1.67;1.40;;;20.20;46.70;;;;;;5143184;27;20180;-80
2023/06/07 01:51:25;;;;;;;1.30;1.20;;;20.20;46.40;;;;;;5125224;27;20166;-79
2023/06/07 01:53:54;;;;;;;1.33;1.20;;;20.10;46.30;;;;;;5143228;27;20159;-82
2023/06/07 01:56:28;;;;;;;1.40;1.30;;;20.10;46.40;;;;;;5124843;27;20187;-80
2023/06/07 01:59:21;;;;;;;1.38;1.27;;;20.20;46.30;;;;;;5124662;27;20151;-79
2023/06/07 02:01:57;;;;;;;1.55;1.38;;;20.10;46.40;;;;;;5109982;27;20189;-82
2023/06/07 02:04:24;;;;;;;1.27;1.17;;;20.20;46.50;;;;;;5125043;27;20178;-82
2023/06/07 02:06:50;;;;;;;1.80;1.40;;;20.10;46.40;;;;;;5123976;27;20641;-81
2023/06/07 02:09:17;;;;;;;1.30;1.20;;;20.10;46.40;;;;;;5124159;27;20156;-81
2023/06/07 02:11:44;;;;;;;1.60;1.50;;;20.10;46.30;;;;;;5124023;27;20224;-82
2023/06/07 02:14:10;;;;;;;1.40;1.30;;;20.10;46.40;;;;;;5106895;27;20159;-79
2023/06/07 02:16:35;;;;;;;1.73;1.40;;;20.10;46.40;;;;;;5105766;27;20655;-80
2023/06/07 02:19:06;;;;;;;1.50;1.40;;;20.10;46.40;;;;;;5142320;27;20160;-79
2023/06/07 02:21:35;;;;;;;1.50;1.40;;;20.10;46.30;;;;;;5123964;27;20658;-80
2023/06/07 02:24:01;;;;;;;1.40;1.30;;;20.10;46.30;;;;;;5123539;27;20156;-79
2023/06/07 02:26:27;;;;;;;1.27;1.17;;;20.10;46.40;;;;;;5123996;27;20151;-81
2023/06/07 02:28:54;;;;;;;1.50;1.40;;;20.10;46.40;;;;;;5124330;27;20196;-80
2023/06/07 02:31:20;;;;;;;1.58;1.20;;;20.10;46.40;;;;;;5142110;27;20194;-81
2023/06/07 02:33:48;;;;;;;1.98;1.30;;;20.10;46.40;;;;;;5122654;27;20160;-80
2023/06/07 02:36:14;;;;;;;1.40;1.30;;;20.10;46.40;;;;;;5103343;28;20184;-80
2023/06/07 02:38:39;;;;;;;1.30;1.20;;;20.10;46.40;;;;;;5120970;28;20223;-81
2023/06/07 02:41:05;;;;;;;1.30;1.20;;;20.10;46.40;;;;;;5102496;28;20183;-79
2023/06/07 02:43:33;;;;;;;1.20;1.10;;;20.10;46.40;;;;;;5084946;28;20156;-82
2023/06/07 02:45:59;;;;;;;1.33;1.23;;;20.10;46.40;;;;;;5120161;28;20209;-81
2023/06/07 02:48:25;;;;;;;1.52;1.42;;;20.10;46.40;;;;;;5084894;28;20576;-79
2023/06/07 02:50:50;;;;;;;1.23;1.13;;;20.10;46.40;;;;;;5119114;28;20159;-82
2023/06/07 02:53:17;;;;;;;1.55;1.40;;;20.10;46.40;;;;;;5101277;28;20610;-79
2023/06/07 02:55:44;;;;;;;1.60;1.40;;;20.10;46.40;;;;;;5101394;28;20164;-80
2023/06/07 02:58:10;;;;;;;1.27;1.17;;;20.00;46.40;;;;;;5100873;28;20166;-80
2023/06/07 03:00:35;;;;;;;1.58;1.38;;;20.10;46.50;;;;;;5100979;28;20184;-80
2023/06/07 03:03:01;;;;;;;1.40;1.30;;;20.10;46.50;;;;;;5083583;28;20172;-80
2023/06/07 03:05:28;;;;;;;1.30;1.20;;;20.00;46.40;;;;;;5099677;28;20187;-81
2023/06/07 03:07:59;;;;;;;1.50;1.20;;;20.10;46.50;;;;;;5117340;28;20187;-83
2023/06/07 03:10:26;;;;;;;1.40;1.30;;;20.10;46.40;;;;;;5098491;28;20172;-83
2023/06/07 03:12:52;;;;;;;1.40;1.30;;;20.10;46.40;;;;;;5098584;28;20262;-82
2023/06/07 03:15:18;;;;;;;1.20;1.10;;;20.00;46.40;;;;;;5116990;28;20156;-83
2023/06/07 03:17:45;;;;;;;1.40;1.20;;;20.10;46.40;;;;;;5099206;28;20551;-83
2023/06/07 03:20:12;;;;;;;1.48;1.38;;;20.10;46.50;;;;;;5098699;28;20154;-80
2023/06/07 03:22:38;;;;;;;1.30;1.20;;;20.10;46.50;;;;;;5099186;28;20196;-80
2023/06/07 03:25:06;;;;;;;1.20;1.10;;;20.10;46.40;;;;;;5116999;28;20156;-81
2023/06/07 03:27:32;;;;;;;1.30;1.20;;;20.10;46.50;;;;;;5099002;28;20170;-82
2023/06/07 03:29:59;;;;;;;1.50;1.40;;;20.10;46.50;;;;;;5081420;28;20164;-83
2023/06/07 03:32:25;;;;;;;1.20;1.10;;;20.10;47.10;;;;;;5117139;28;20625;-81
2023/06/07 03:34:51;;;;;;;1.33;1.23;;;20.10;46.40;;;;;;5098909;28;20215;-79
2023/06/07 03:37:20;;;;;;;1.50;1.30;;;20.10;46.40;;;;;;5082053;28;20168;-82
2023/06/07 03:39:46;;;;;;;1.42;1.30;;;20.10;46.40;;;;;;5117119;28;20184;-81
2023/06/07 03:42:11;;;;;;;1.50;1.40;;;20.10;46.40;;;;;;5117677;28;20187;-83
2023/06/07 03:44:37;;;;;;;1.50;1.40;;;20.10;46.40;;;;;;5099127;28;20252;-81
2023/06/07 03:47:03;;;;;;;1.52;1.40;;;20.10;46.40;;;;;;5098811;28;20172;-79
2023/06/07 03:49:32;;;;;;;1.40;1.30;;;20.10;46.40;;;;;;5081267;28;20171;-80
2023/06/07 03:51:57;;;;;;;1.38;1.27;;;20.20;46.40;;;;;;5116079;28;20160;-81
2023/06/07 03:54:23;;;;;;;1.20;1.10;;;20.20;46.40;;;;;;5097816;28;20199;-79
2023/06/07 03:56:49;;;;;;;1.45;1.30;;;20.20;46.40;;;;;;5098138;28;20171;-81
2023/06/07 03:59:19;;;;;;;1.33;1.23;;;20.20;46.40;;;;;;5097389;28;20160;-83
2023/06/07 04:01:45;;;;;;;1.38;1.20;;;20.20;46.30;;;;;;5079979;28;20286;-83
2023/06/07 04:04:11;;;;;;;1.75;1.50;;;20.20;46.30;;;;;;5097522;28;20634;-81
2023/06/07 04:06:36;;;;;;;1.38;1.27;;;20.20;46.20;;;;;;5097412;28;20156;-80
2023/06/07 04:09:03;;;;;;;1.35;1.23;;;20.20;46.90;;;;;;5080638;28;20171;-81
2023/06/07 04:11:29;;;;;;;1.88;1.50;;;20.30;46.20;;;;;;5114946;28;20252;-83
2023/06/07 04:13:56;;;;;;;1.30;1.20;;;20.30;46.20;;;;;;5080028;28;20529;-83
2023/06/07 04:16:22;;;;;;;1.48;1.10;;;20.30;46.20;;;;;;5115276;28;20233;-82
2023/06/07 04:18:48;;;;;;;2.03;1.40;;;20.30;46.10;;;;;;5096773;28;20604;-83
2023/06/07 04:21:14;;;;;;;1.90;1.10;;;20.30;46.10;;;;;;5114698;28;20275;-80
2023/06/07 04:23:41;;;;;;;1.33;1.23;;;20.30;46.00;;;;;;5096862;28;20653;-81
2023/06/07 04:26:08;;;;;;;1.20;1.10;;;20.30;46.00;;;;;;5079918;28;20554;-83
2023/06/07 04:28:34;;;;;;;1.30;1.20;;;20.40;46.30;;;;;;5096489;28;20234;-82
2023/06/07 04:31:00;;;;;;;1.27;1.17;;;20.40;45.90;;;;;;5114422;28;20236;-81
2023/06/07 04:33:27;;;;;;;1.60;1.33;;;20.40;46.00;;;;;;5095990;28;20239;-79
2023/06/07 04:35:57;;;;;;;1.35;1.20;;;20.40;46.00;;;;;;5096144;28;20219;-81
2023/06/07 04:38:23;;;;;;;1.38;1.27;;;20.40;45.90;;;;;;5097211;28;20148;-82
2023/06/07 04:40:50;;;;;;;1.27;1.17;;;20.30;45.90;;;;;;5095996;28;20192;-84
2023/06/07 04:43:18;;;;;;;1.65;1.55;;;20.40;45.80;;;;;;5096575;28;20156;-80
2023/06/07 04:45:46;;;;;;;1.42;1.30;;;20.40;45.80;;;;;;5096590;28;20152;-81
2023/06/07 04:48:13;;;;;;;1.65;1.17;;;20.40;45.80;;;;;;5079781;28;20164;-80
2023/06/07 04:50:41;;;;;;;1.73;1.40;;;20.40;45.80;;;;;;5096944;28;20159;-81
2023/06/07 04:53:08;;;;;;;1.40;1.30;;;20.40;45.80;;;;;;5114196;28;20579;-82
2023/06/07 04:55:34;;;;;;;1.48;1.38;;;20.40;45.70;;;;;;5063028;28;20248;-83
2023/06/07 04:58:04;;;;;;;1.45;1.20;;;20.50;45.70;;;;;;5079477;28;20607;-82
2023/06/07 05:00:30;;;;;;;1.27;1.10;;;20.40;45.80;;;;;;5096813;28;20573;-83
2023/06/07 05:02:57;;;;;;;1.50;1.40;;;20.40;45.70;;;;;;5078932;28;20248;-82
2023/06/07 05:05:22;;;;;;;2.13;1.30;;;20.50;45.70;;;;;;5095991;28;20152;-82
2023/06/07 05:07:49;;;;;;;1.55;1.38;;;20.50;45.70;;;;;;5095701;28;20171;-83
2023/06/07 05:10:17;;;;;;;1.30;1.20;;;20.50;45.70;;;;;;5096810;28;20160;-80
2023/06/07 05:12:42;;;;;;;1.10;1.00;;;20.50;45.60;;;;;;5097621;28;20152;-84
2023/06/07 05:15:09;;;;;;;1.35;1.25;;;20.50;45.70;;;;;;5099343;28;20226;-82
2023/06/07 05:17:36;;;;;;;1.77;1.23;;;20.50;45.70;;;;;;5099284;28;20163;-82
2023/06/07 05:20:06;;;;;;;1.30;1.20;;;20.50;45.70;;;;;;5099339;28;20614;-84
2023/06/07 05:22:33;;;;;;;1.23;1.13;;;20.50;45.70;;;;;;5117473;28;20646;-81
2023/06/07 05:24:59;;;;;;;1.30;1.10;;;20.60;45.60;;;;;;5081846;28;20167;-84
2023/06/07 05:27:25;;;;;;;1.20;1.10;;;20.60;45.50;;;;;;5098659;28;20568;-82
2023/06/07 05:29:50;;;;;;;1.48;1.23;;;20.60;45.50;;;;;;5098815;28;20156;-83
2023/06/07 05:32:19;;;;;;;1.40;1.10;;;20.60;45.50;;;;;;5098945;28;20211;-81
2023/06/07 05:34:48;;;;;;;1.33;1.23;;;20.60;45.50;;;;;;5116064;27;20210;-80
2023/06/07 05:37:14;;;;;;;1.27;1.17;;;20.60;45.60;;;;;;5158379;27;20226;-82
2023/06/07 05:39:41;;;;;;;1.33;1.23;;;20.60;45.50;;;;;;5139487;27;20194;-81
2023/06/07 05:42:06;;;;;;;1.30;1.20;;;20.60;45.50;;;;;;5157478;27;20181;-83
2023/06/07 05:44:34;;;;;;;1.48;1.23;;;20.60;45.60;;;;;;5122009;27;20159;-83
2023/06/07 05:47:00;;;;;;;1.35;1.25;;;20.60;45.50;;;;;;5136155;27;20171;-82
2023/06/07 05:49:26;;;;;;;1.23;1.10;;;20.70;45.60;;;;;;5099975;27;20167;-82
2023/06/07 05:51:52;;;;;;;1.40;1.30;;;20.60;45.50;;;;;;5135396;27;20159;-83
2023/06/07 05:54:18;;;;;;;1.30;1.20;;;20.70;45.40;;;;;;5122287;27;20175;-84
2023/06/07 05:56:44;;;;;;;1.20;1.10;;;20.70;45.50;;;;;;5114637;28;20152;-82
2023/06/07 05:59:10;;;;;;;1.20;1.10;;;20.60;45.40;;;;;;5115786;28;20174;-80
2023/06/07 06:01:36;;;;;;;1.38;1.27;;;20.70;45.50;;;;;;5114153;28;20233;-83
2023/06/07 06:04:02;;;;;;;1.23;1.10;;;20.70;45.40;;;;;;5114499;28;20149;-83
2023/06/07 06:06:28;;;;;;;1.08;1.00;;;20.70;45.30;;;;;;5115574;28;20149;-84
2023/06/07 06:08:54;;;;;;;1.35;1.25;;;20.70;45.20;;;;;;5114448;28;20160;-81
2023/06/07 06:11:19;;;;;;;1.40;1.10;;;20.70;45.30;;;;;;5114703;28;20182;-81
2023/06/07 06:13:45;;;;;;;1.90;1.25;;;20.80;45.30;;;;;;5114660;28;20217;-84
2023/06/07 06:16:11;;;;;;;1.40;1.10;;;20.70;45.30;;;;;;5115856;28;20542;-85
2023/06/07 06:18:36;;;;;;;1.40;1.30;;;20.70;45.50;;;;;;5114196;28;20646;-85
2023/06/07 06:21:03;;;;;;;1.65;1.20;;;20.70;45.50;;;;;;5097240;28;20192;-83
2023/06/07 06:23:28;;;;;;;1.42;1.20;;;20.70;45.50;;;;;;5114098;28;20170;-84
2023/06/07 06:25:54;;;;;;;3.67;1.30;;;20.80;45.30;;;;;;5113725;28;20164;-82
2023/06/07 06:28:21;;;;;;;1.40;1.10;;;20.80;45.30;;;;;;5114861;28;20532;-83
2023/06/07 06:30:49;;;;;;;1.40;1.30;;;20.80;45.30;;;;;;5097703;28;20164;-83
2023/06/07 06:33:15;;;;;;;1.30;1.20;;;20.80;45.30;;;;;;5097930;28;20345;-81
2023/06/07 06:35:41;;;;;;;1.50;1.30;;;20.70;45.60;;;;;;5101087;28;20315;-83
2023/06/07 06:38:06;;;;;;;1.15;1.05;;;20.70;45.50;;;;;;5080010;28;20170;-80
2023/06/07 06:40:32;;;;;;;1.17;1.08;;;20.70;45.40;;;;;;5096854;28;20188;-82
2023/06/07 06:43:00;;;;;;;1.40;1.20;;;20.70;45.60;;;;;;5076435;28;20165;-84
2023/06/07 06:45:26;;;;;;;1.30;1.17;;;20.60;45.70;;;;;;5094078;28;20298;-81
2023/06/07 06:47:51;;;;;;;1.20;1.10;;;20.50;45.90;;;;;;5095363;28;20145;-80
2023/06/07 06:50:17;;;;;;;1.23;1.08;;;20.50;46.00;;;;;;5094322;28;20153;-82
2023/06/07 06:52:58;;;;;;;1.70;1.17;;;20.60;46.00;;;;;;5077419;28;20176;-83
2023/06/07 06:56:03;;;;;;;1.92;1.08;;;20.50;45.90;;;;;;5074488;28;20161;-80
2023/06/07 06:58:30;;;;;;;1.20;1.10;;;20.50;46.00;;;;;;5093071;28;20249;-82
2023/06/07 07:00:56;;;;;;;1.00;0.90;;;20.50;46.10;;;;;;5078255;28;20558;-81
2023/06/07 07:03:26;;;;;;;1.25;0.98;;;20.60;46.00;;;;;;5079152;28;20152;-79
2023/06/07 07:05:55;;;;;;;0.93;0.80;;;20.70;45.80;;;;;;5076104;28;20598;-82
2023/06/07 07:08:21;;;;;;;1.33;0.90;;;20.70;45.80;;;;;;5072999;28;20177;-82
2023/06/07 07:10:47;;;;;;;1.13;1.02;;;20.80;45.60;;;;;;5058838;28;20239;-80
2023/06/07 07:13:14;;;;;;;2.97;1.00;;;20.80;45.50;;;;;;5055157;28;20287;-83
2023/06/07 07:15:40;;;;;;;1.95;1.10;;;20.70;45.60;;;;;;5092512;28;20152;-83
2023/06/07 07:18:07;;;;;;;3.08;1.00;;;20.70;45.60;;;;;;5092635;28;20184;-82
2023/06/07 07:20:33;;;;;;;1.20;1.10;;;20.70;45.60;;;;;;5092962;28;20650;-81
2023/06/07 07:23:01;;;;;;;3.03;0.93;;;20.70;45.60;;;;;;5076754;28;20230;-83
2023/06/07 07:25:27;;;;;;;1.20;0.95;;;20.50;45.60;;;;;;5087182;28;20627;-81
2023/06/07 07:27:55;;;;;;;1.95;0.82;;;20.40;46.50;;;;;;5076585;28;20292;-80
2023/06/07 07:30:21;;;;;;;1.02;0.93;;;20.50;45.90;;;;;;5073849;28;20169;-83
2023/06/07 07:32:46;;;;;;;1.08;0.90;;;20.40;45.90;;;;;;5073570;28;20168;-81
2023/06/07 07:35:12;;;;;;;0.90;0.90;;;20.50;45.90;;;;;;5056428;28;20324;-82
2023/06/07 07:37:39;;;;;;;1.02;0.95;;;20.60;45.80;;;;;;5073514;28;20172;-80
2023/06/07 07:40:09;;;;;;;0.90;0.80;;;20.60;46.50;;;;;;5116908;27;20197;-80
2023/06/07 07:42:35;;;;;;;0.80;0.80;;;20.70;45.70;;;;;;5135204;27;20661;-83
2023/06/07 07:45:01;;;;;;;1.30;0.90;;;20.70;45.50;;;;;;5118648;27;20188;-80
2023/06/07 07:47:26;;;;;;;0.93;0.88;;;20.70;45.40;;;;;;5096032;28;20191;-82
2023/06/07 07:49:52;;;;;;;1.85;0.90;;;20.70;45.50;;;;;;5097332;28;20557;-83
2023/06/07 07:52:18;;;;;;;3.80;1.20;;;20.60;45.70;;;;;;5123976;27;20713;-82
2023/06/07 07:54:43;;;;;;;3.80;1.00;;;20.60;45.60;;;;;;5101060;27;20163;-80
2023/06/07 07:57:10;;;;;;;4.20;1.30;;;20.70;45.50;;;;;;5118697;27;20151;-83
2023/06/07 07:59:37;;;;;;;5.38;1.45;;;20.70;45.50;;;;;;5136469;28;20177;-83
2023/06/07 08:02:03;;;;;;;4.00;0.95;;;20.80;45.50;;;;;;5118195;28;20190;-83
2023/06/07 08:04:31;;;;;;;4.18;1.20;;;20.70;45.50;;;;;;5130748;28;20151;-81
2023/06/07 08:06:57;;;;;;;5.00;1.20;;;20.80;45.50;;;;;;5135219;28;20147;-80
2023/06/07 08:09:22;;;;;;;0.75;0.75;;;20.70;45.50;;;;;;5104703;28;20533;-83
2023/06/07 08:11:48;;;;;;;2.22;1.10;;;20.80;45.60;;;;;;5113698;28;20152;-83
2023/06/07 08:14:14;;;;;;;2.22;0.95;;;20.70;45.60;;;;;;5123138;28;20171;-81
2023/06/07 08:16:40;;;;;;;1.70;1.35;;;20.80;45.50;;;;;;5134430;28;20215;-82
2023/06/07 08:19:07;;;;;;;0.70;0.65;;;20.80;45.50;;;;;;5129750;28;20164;-81
2023/06/07 08:21:33;;;;;;;1.65;1.00;;;20.90;45.50;;;;;;5134452;27;20218;-83
2023/06/07 08:24:00;;;;;;;2.80;1.10;;;20.90;45.40;;;;;;5117314;28;20163;-80
2023/06/07 08:26:25;;;;;;;0.95;0.90;;;20.80;45.50;;;;;;5134092;27;20166;-85
2023/06/07 08:28:51;;;;;;;1.63;1.00;;;20.90;45.70;;;;;;5120695;28;20514;-79
2023/06/07 08:31:18;;;;;;;2.97;0.85;;;20.80;45.50;;;;;;5135065;28;20546;-82
2023/06/07 08:33:43;;;;;;;1.67;1.10;;;21.00;45.40;;;;;;5116816;28;20148;-83
2023/06/07 08:36:09;;;;;;;2.33;1.10;;;21.00;45.20;;;;;;5092361;28;20213;-81
2023/06/07 08:38:39;;;;;;;1.67;1.08;;;21.00;45.30;;;;;;5095953;28;20639;-80
2023/06/07 08:41:04;;;;;;;5.75;1.02;;;20.90;45.40;;;;;;5096324;28;20184;-81
2023/06/07 08:43:30;;;;;;;3.17;1.00;;;20.90;45.40;;;;;;5088898;28;20164;-81
2023/06/07 08:45:56;;;;;;;1.45;0.73;;;21.00;45.40;;;;;;5115165;28;20213;-79
2023/06/07 08:48:39;;;;;;;2.45;0.93;;;21.00;45.20;;;;;;5096742;27;20152;-82
2023/06/07 08:51:06;;;;;;;4.20;0.95;;;21.00;45.30;;;;;;5054229;28;20596;-79
2023/06/07 08:53:55;;;;;;;3.03;1.00;;;20.90;45.40;;;;;;5037448;28;20206;-78
2023/06/07 08:56:21;;;;;;;1.95;0.80;;;20.90;45.40;;;;;;5053566;28;20185;-81
2023/06/07 08:58:48;;;;;;;3.80;0.90;;;21.00;45.60;;;;;;5037023;28;20178;-78
2023/06/07 09:01:14;;;;;;;1.95;0.85;;;21.00;45.30;;;;;;5030919;28;20214;-82
2023/06/07 09:03:40;;;;;;;1.10;1.00;;;21.00;45.60;;;;;;5018474;28;20616;-80
2023/06/07 09:06:06;;;;;;;2.25;0.90;;;21.10;45.50;;;;;;5041512;28;20243;-79
2023/06/07 09:08:32;;;;;;;1.88;0.90;;;21.10;45.60;;;;;;5019761;28;20170;-82
2023/06/07 09:10:57;;;;;;;2.13;1.00;;;21.10;45.50;;;;;;5049489;28;20672;-83
2023/06/07 09:13:24;;;;;;;6.80;0.88;;;21.10;45.40;;;;;;5035712;28;20179;-82
2023/06/07 09:15:52;;;;;;;2.22;1.00;;;21.10;45.30;;;;;;5033968;28;20274;-82
2023/06/07 09:18:18;;;;;;;3.10;1.20;;;21.20;45.50;;;;;;5033659;28;20525;-83
2023/06/07 09:20:43;;;;;;;3.85;1.00;;;21.20;45.30;;;;;;5016080;28;20692;-81
2023/06/07 09:23:13;;;;;;;1.40;1.00;;;21.20;45.10;;;;;;5073799;28;20177;-80
2023/06/07 09:25:40;;;;;;;2.88;0.80;;;21.10;45.30;;;;;;5076787;28;20203;-82
2023/06/07 09:28:10;;;;;;;1.30;0.80;;;21.10;45.20;;;;;;5095704;28;20156;-80
2023/06/07 09:30:36;;;;;;;1.38;1.00;;;21.10;45.30;;;;;;5111474;28;20168;-79
2023/06/07 09:33:03;;;;;;;2.47;1.00;;;21.20;45.20;;;;;;5060517;28;20169;-80
2023/06/07 09:35:28;;;;;;;3.08;0.80;;;21.20;45.20;;;;;;5098979;28;20216;-82
2023/06/07 09:37:55;;;;;;;5.18;0.90;;;21.30;45.00;;;;;;5131795;27;20156;-82
2023/06/07 09:40:22;;;;;;;3.22;1.08;;;21.30;45.10;;;;;;5115139;28;20175;-81
2023/06/07 09:42:57;;;;;;;1.02;0.82;;;21.30;44.90;;;;;;5132902;27;20199;-81
2023/06/07 09:45:23;;;;;;;1.20;1.00;;;21.30;45.10;;;;;;5116025;28;20179;-80
2023/06/07 09:47:49;;;;;;;0.95;0.88;;;21.20;45.20;;;;;;5133409;27;20598;-81
2023/06/07 09:50:15;;;;;;;0.88;0.80;;;21.20;45.00;;;;;;5132894;27;20236;-82
2023/06/07 09:52:41;;;;;;;1.35;1.00;;;21.20;45.00;;;;;;5132639;27;20525;-83
2023/06/07 09:55:08;;;;;;;2.92;0.88;;;21.20;45.20;;;;;;5131756;27;20156;-80
2023/06/07 09:57:37;;;;;;;0.98;0.80;;;21.20;45.30;;;;;;5114362;28;20595;-81
2023/06/07 10:00:20;;;;;;;1.10;0.70;;;21.20;45.30;;;;;;5130166;27;20175;-81
2023/06/07 10:02:47;;;;;;;2.10;0.77;;;21.20;45.30;;;;;;5052353;28;20186;-84
2023/06/07 10:06:07;;;;;;;2.35;1.02;;;21.20;45.30;;;;;;5036252;28;20491;-80
2023/06/07 10:08:33;;;;;;;3.28;1.00;;;21.30;45.40;;;;;;4916160;29;20273;-81
2023/06/07 10:10:59;;;;;;;1.38;0.90;;;21.20;45.20;;;;;;4900820;29;20281;-80
2023/06/07 10:13:25;;;;;;;1.60;0.77;;;21.10;45.30;;;;;;4916598;29;20748;-83
2023/06/07 10:15:50;;;;;;;2.55;1.10;;;21.20;45.40;;;;;;4885634;29;20178;-83
2023/06/07 10:18:17;;;;;;;2.08;0.90;;;21.20;45.40;;;;;;4916725;29;20190;-80
2023/06/07 10:20:57;;;;;;;1.02;0.82;;;21.20;45.50;;;;;;4902259;29;20281;-82
2023/06/07 10:23:31;;;;;;;2.10;0.77;;;21.20;45.50;;;;;;4900866;29;20189;-82
2023/06/07 10:26:04;;;;;;;1.05;0.95;;;21.20;45.60;;;;;;4901207;29;20185;-81
2023/06/07 10:28:43;;;;;;;1.08;0.93;;;21.20;45.60;;;;;;4901768;29;20202;-83
2023/06/07 10:31:10;;;;;;;0.98;0.70;;;21.20;45.70;;;;;;4884852;29;20178;-81
2023/06/07 10:33:36;;;;;;;1.25;0.90;;;21.20;45.60;;;;;;4909717;28;20189;-82
2023/06/07 10:36:02;;;;;;;1.73;0.80;;;21.10;45.60;;;;;;4925572;28;20409;-83
2023/06/07 10:38:30;;;;;;;0.90;0.90;;;21.10;45.60;;;;;;4979690;28;20189;-79
2023/06/07 10:40:57;;;;;;;0.98;0.88;;;21.20;45.50;;;;;;5095715;28;20183;-80
2023/06/07 10:43:26;;;;;;;0.93;0.88;;;21.20;45.70;;;;;;5077018;28;20165;-81
2023/06/07 10:46:19;;;;;;;0.70;0.70;;;21.10;46.00;;;;;;5077254;28;20157;-82
2023/06/07 10:48:45;;;;;;;1.63;1.08;;;21.10;45.90;;;;;;5093795;28;20183;-80
2023/06/07 10:51:12;;;;;;;1.02;0.93;;;21.20;46.10;;;;;;5077551;28;20180;-83
2023/06/07 10:53:52;;;;;;;0.65;0.65;;;21.20;46.00;;;;;;5077546;28;20169;-81
2023/06/07 10:56:32;;;;;;;1.10;1.00;;;21.10;46.20;;;;;;5094584;28;20153;-81
2023/06/07 10:59:09;;;;;;;0.90;0.90;;;21.10;46.10;;;;;;5093469;28;20153;-81
2023/06/07 11:01:35;;;;;;;1.13;0.93;;;21.00;46.20;;;;;;5094806;28;20192;-81
2023/06/07 11:04:01;;;;;;;0.80;0.80;;;21.20;46.20;;;;;;5093476;28;20234;-83
2023/06/07 11:06:27;;;;;;;0.80;0.80;;;21.10;46.10;;;;;;5094279;28;20669;-82
2023/06/07 11:08:52;;;;;;;1.27;0.88;;;21.20;45.90;;;;;;5059575;28;20173;-83
2023/06/07 11:11:45;;;;;;;0.90;0.90;;;21.20;45.60;;;;;;5075956;28;20192;-81
2023/06/07 11:14:12;;;;;;;1.15;1.05;;;21.20;46.00;;;;;;5092766;28;20153;-84
2023/06/07 11:16:37;;;;;;;1.17;0.98;;;21.10;46.00;;;;;;5092743;28;20168;-84
2023/06/07 11:19:09;;;;;;;1.95;0.70;;;21.10;46.00;;;;;;5058890;28;20188;-84
2023/06/07 11:22:04;;;;;;;1.92;1.00;;;21.10;46.20;;;;;;5075925;28;20658;-83
2023/06/07 11:24:29;;;;;;;1.10;0.98;;;21.10;46.10;;;;;;5077181;28;20164;-84
2023/06/07 11:26:55;;;;;;;1.13;1.02;;;21.00;46.20;;;;;;5059480;28;20255;-80
2023/06/07 11:29:21;;;;;;;0.80;0.80;;;21.00;46.20;;;;;;5094617;28;20164;-84
2023/06/07 11:31:47;;;;;;;1.00;0.90;;;21.00;46.30;;;;;;5077092;28;20523;-84
2023/06/07 11:34:14;;;;;;;2.28;0.88;;;21.00;46.40;;;;;;5078312;28;20157;-83
2023/06/07 11:36:40;;;;;;;0.80;0.80;;;21.00;46.30;;;;;;5113608;28;20610;-83
2023/06/07 11:39:08;;;;;;;1.83;1.00;;;21.00;46.40;;;;;;5113422;28;20267;-82
2023/06/07 11:41:35;;;;;;;1.25;1.15;;;21.00;46.40;;;;;;5113090;28;20180;-81
2023/06/07 11:44:01;;;;;;;1.30;1.10;;;21.00;46.50;;;;;;5113089;28;20518;-80
2023/06/07 11:46:32;;;;;;;2.17;1.00;;;21.10;46.40;;;;;;5113991;28;20208;-82
2023/06/07 11:49:03;;;;;;;2.33;0.95;;;21.10;46.40;;;;;;5113463;28;20174;-84
2023/06/07 11:51:29;;;;;;;2.03;1.13;;;21.10;46.40;;;;;;5130781;27;20156;-82
2023/06/07 11:53:58;;;;;;;2.03;1.05;;;21.10;46.40;;;;;;5129629;27;20622;-83
2023/06/07 11:56:25;;;;;;;1.48;0.85;;;21.10;46.40;;;;;;5129920;27;20610;-81
2023/06/07 11:58:52;;;;;;;1.23;0.90;;;21.20;46.40;;;;;;5113129;28;20206;-82
2023/06/07 12:01:19;;;;;;;1.40;1.00;;;21.20;46.10;;;;;;5115268;28;20550;-83
2023/06/07 12:03:45;;;;;;;1.55;1.00;;;21.30;46.20;;;;;;5131805;28;20155;-85
2023/06/07 12:06:11;;;;;;;3.15;1.20;;;21.20;46.00;;;;;;5116891;28;20602;-83
2023/06/07 12:08:37;;;;;;;3.53;1.00;;;21.20;46.30;;;;;;5131723;28;20155;-83
2023/06/07 12:11:03;;;;;;;1.27;1.00;;;21.30;46.30;;;;;;5131372;28;20157;-85
2023/06/07 12:13:37;;;;;;;1.02;0.93;;;21.30;46.20;;;;;;5130146;28;20175;-82
2023/06/07 12:16:03;;;;;;;1.98;1.00;;;21.20;46.40;;;;;;5130081;28;20155;-84
2023/06/07 12:18:30;;;;;;;3.53;1.08;;;21.20;46.60;;;;;;5130547;28;20178;-83
2023/06/07 12:21:08;;;;;;;1.77;0.90;;;21.10;46.70;;;;;;5131174;28;20190;-82
2023/06/07 12:23:36;;;;;;;1.05;0.95;;;21.10;46.80;;;;;;5120417;28;20184;-82
2023/06/07 12:26:06;;;;;;;2.90;1.00;;;21.10;47.00;;;;;;5120826;28;20163;-85
2023/06/07 12:28:36;;;;;;;1.20;1.10;;;21.00;47.00;;;;;;5138334;27;20141;-82
2023/06/07 12:31:02;;;;;;;1.02;0.90;;;21.00;47.10;;;;;;5136989;27;20175;-85
2023/06/07 12:33:30;;;;;;;1.00;0.90;;;21.10;47.30;;;;;;5120422;28;20172;-84
2023/06/07 12:35:58;;;;;;;1.15;1.05;;;21.00;47.40;;;;;;5106426;27;20220;-82
2023/06/07 12:38:24;;;;;;;1.10;1.00;;;21.00;47.60;;;;;;5082015;28;20153;-83
2023/06/07 12:40:50;;;;;;;0.98;0.85;;;21.00;47.60;;;;;;5064892;28;20659;-82
2023/06/07 12:43:18;;;;;;;1.08;0.98;;;21.00;47.60;;;;;;5080473;28;20176;-84
2023/06/07 12:45:43;;;;;;;0.85;0.85;;;21.00;47.50;;;;;;5098001;28;20157;-82
2023/06/07 12:48:09;;;;;;;1.02;0.88;;;21.00;47.50;;;;;;5080195;28;20163;-84
2023/06/07 12:50:35;;;;;;;0.63;0.63;;;21.00;47.60;;;;;;5063271;28;20241;-83